createdAt,value
2018-07-25T00:00:03.703Z,21.30
2018-07-25T00:02:31.737Z,21.30
2018-07-25T00:04:59.784Z,21.30
2018-07-25T00:07:27.826Z,21.30
2018-07-25T00:09:55.874Z,21.20
2018-07-25T00:12:23.968Z,21.20
2018-07-25T00:14:52.124Z,21.20
2018-07-25T00:17:20.169Z,21.20
2018-07-25T00:19:48.222Z,21.20
2018-07-25T00:22:16.303Z,21.20
2018-07-25T00:24:44.367Z,21.20
2018-07-25T00:27:12.423Z,21.20
2018-07-25T00:29:40.496Z,21.20
2018-07-25T00:32:08.556Z,21.20
2018-07-25T00:34:36.625Z,21.20
2018-07-25T00:37:04.676Z,21.10
2018-07-25T00:39:32.755Z,21.10
2018-07-25T00:42:00.817Z,21.10
2018-07-25T00:44:28.896Z,21.10
2018-07-25T00:46:56.963Z,21.10
2018-07-25T00:49:25.029Z,21.10
2018-07-25T00:51:53.096Z,21.10
2018-07-25T00:54:21.151Z,21.10
2018-07-25T00:56:49.216Z,21.00
2018-07-25T00:59:17.276Z,21.00
2018-07-25T01:01:45.352Z,21.00
2018-07-25T01:04:13.412Z,21.00
2018-07-25T01:06:41.480Z,21.00
2018-07-25T01:09:10.844Z,21.00
2018-07-25T01:11:38.913Z,21.00
2018-07-25T01:14:06.989Z,21.00
2018-07-25T01:16:35.094Z,21.00
2018-07-25T01:19:03.167Z,21.00
2018-07-25T01:21:31.250Z,21.00
2018-07-25T01:23:59.353Z,21.00
2018-07-25T01:26:27.421Z,20.90
2018-07-25T01:28:55.584Z,20.90
2018-07-25T01:31:23.648Z,20.90
2018-07-25T01:33:51.705Z,20.90
2018-07-25T01:36:19.778Z,20.80
2018-07-25T01:38:47.838Z,20.80
2018-07-25T01:41:15.912Z,20.80
2018-07-25T01:43:43.976Z,20.70
2018-07-25T01:46:12.053Z,20.70
2018-07-25T01:48:40.112Z,20.60
2018-07-25T01:51:08.188Z,20.60
2018-07-25T01:53:36.256Z,20.60
2018-07-25T01:56:04.336Z,20.60
2018-07-25T01:58:32.396Z,20.60
2018-07-25T02:01:00.492Z,20.50
2018-07-25T02:03:28.536Z,20.50
2018-07-25T02:05:56.639Z,20.50
2018-07-25T02:08:24.708Z,20.50
2018-07-25T02:10:52.764Z,20.50
2018-07-25T02:13:20.828Z,20.50
2018-07-25T02:15:48.891Z,20.50
2018-07-25T02:18:16.960Z,20.40
2018-07-25T02:20:45.038Z,20.40
2018-07-25T02:23:13.104Z,20.40
2018-07-25T02:25:41.169Z,20.40
2018-07-25T02:28:09.236Z,20.30
2018-07-25T02:30:37.304Z,20.30
2018-07-25T02:33:05.421Z,20.30
2018-07-25T02:35:33.503Z,20.30
2018-07-25T02:38:01.560Z,20.20
2018-07-25T02:40:29.642Z,20.30
2018-07-25T02:42:57.703Z,20.20
2018-07-25T02:45:25.793Z,20.20
2018-07-25T02:47:53.851Z,20.20
2018-07-25T02:50:21.930Z,20.20
2018-07-25T02:52:49.999Z,20.20
2018-07-25T02:55:18.068Z,20.20
2018-07-25T02:57:46.137Z,20.20
2018-07-25T03:00:14.200Z,20.20
2018-07-25T03:02:42.263Z,20.20
2018-07-25T03:05:10.337Z,20.10
2018-07-25T03:07:38.437Z,20.10
2018-07-25T03:10:06.689Z,20.10
2018-07-25T03:12:34.772Z,20.10
2018-07-25T03:15:02.844Z,20.10
2018-07-25T03:17:30.953Z,20.10
2018-07-25T03:19:59.015Z,20.00
2018-07-25T03:22:27.077Z,20.00
2018-07-25T03:24:55.113Z,20.00
2018-07-25T03:27:23.164Z,20.00
2018-07-25T03:29:51.204Z,19.90
2018-07-25T03:32:19.253Z,19.90
2018-07-25T03:34:47.305Z,19.90
2018-07-25T03:37:15.360Z,19.80
2018-07-25T03:39:43.412Z,19.80
2018-07-25T03:42:11.473Z,19.70
2018-07-25T03:44:39.516Z,19.70
2018-07-25T03:47:07.581Z,19.70
2018-07-25T03:49:35.623Z,19.60
2018-07-25T03:52:03.673Z,19.60
2018-07-25T03:54:32.107Z,19.60
2018-07-25T03:57:00.151Z,19.50
2018-07-25T03:59:28.200Z,19.50
2018-07-25T04:01:56.532Z,19.50
2018-07-25T04:04:24.512Z,19.50
2018-07-25T04:06:52.597Z,19.60
2018-07-25T04:09:20.691Z,19.60
2018-07-25T04:11:48.736Z,19.60
2018-07-25T04:14:16.780Z,19.60
2018-07-25T04:16:44.832Z,19.60
2018-07-25T04:19:12.885Z,19.70
2018-07-25T04:21:40.972Z,19.70
2018-07-25T04:24:09.040Z,19.80
2018-07-25T04:26:37.220Z,19.80
2018-07-25T04:29:05.289Z,19.80
2018-07-25T04:31:33.365Z,19.90
2018-07-25T04:34:01.432Z,19.90
2018-07-25T04:36:29.508Z,20.00
2018-07-25T04:38:57.577Z,20.00
2018-07-25T04:41:25.644Z,20.00
2018-07-25T04:43:53.796Z,20.00
2018-07-25T04:46:21.890Z,19.90
2018-07-25T04:48:49.932Z,19.90
2018-07-25T04:51:18.000Z,19.90
2018-07-25T04:53:46.056Z,19.90
2018-07-25T04:56:14.195Z,19.90
2018-07-25T04:58:42.189Z,19.90
2018-07-25T05:01:10.257Z,19.80
2018-07-25T05:03:38.320Z,19.80
2018-07-25T05:06:06.381Z,19.80
2018-07-25T05:08:34.452Z,19.90
2018-07-25T05:11:02.511Z,19.90
2018-07-25T05:13:30.576Z,19.90
2018-07-25T05:15:58.645Z,20.00
2018-07-25T05:18:26.708Z,20.10
2018-07-25T05:20:54.760Z,20.20
2018-07-25T05:23:22.823Z,20.20
2018-07-25T05:25:50.852Z,20.30
2018-07-25T05:28:18.900Z,20.50
2018-07-25T05:30:46.944Z,20.60
2018-07-25T05:33:15.000Z,20.70
2018-07-25T05:35:43.040Z,20.90
2018-07-25T05:38:11.122Z,21.00
2018-07-25T05:40:39.128Z,21.10
2018-07-25T05:43:07.179Z,21.20
2018-07-25T05:45:35.217Z,21.40
2018-07-25T05:48:03.276Z,21.50
2018-07-25T05:50:31.323Z,21.70
2018-07-25T05:52:59.404Z,21.80
2018-07-25T05:55:27.444Z,21.90
2018-07-25T05:57:55.495Z,22.10
2018-07-25T06:00:23.540Z,22.20
2018-07-25T06:02:51.655Z,22.40
2018-07-25T06:05:19.645Z,22.60
2018-07-25T06:07:47.684Z,22.80
2018-07-25T06:10:15.736Z,23.00
2018-07-25T06:12:43.792Z,23.10
2018-07-25T06:15:11.825Z,23.30
2018-07-25T06:17:39.872Z,23.60
2018-07-25T06:20:08.696Z,24.00
2018-07-25T06:22:36.892Z,24.60
2018-07-25T06:25:04.943Z,25.20
2018-07-25T06:27:32.996Z,26.20
2018-07-25T06:30:01.143Z,27.40
2018-07-25T06:32:29.212Z,28.40
2018-07-25T06:34:57.259Z,29.40
2018-07-25T06:37:25.304Z,30.50
2018-07-25T06:39:53.368Z,31.40
2018-07-25T06:42:21.440Z,32.00
2018-07-25T06:44:49.489Z,32.70
2018-07-25T06:47:17.536Z,33.20
2018-07-25T06:49:45.701Z,33.80
2018-07-25T06:52:13.746Z,34.00
2018-07-25T06:54:41.870Z,33.80
2018-07-25T06:57:09.941Z,33.90
2018-07-25T06:59:38.164Z,34.50
2018-07-25T07:02:06.293Z,34.80
2018-07-25T07:04:34.332Z,34.80
2018-07-25T07:07:02.502Z,35.10
2018-07-25T07:09:30.452Z,35.00
2018-07-25T07:11:58.499Z,34.70
2018-07-25T07:14:26.544Z,34.80
2018-07-25T07:16:54.584Z,34.70
2018-07-25T07:19:22.636Z,34.60
2018-07-25T07:21:50.691Z,34.50
2018-07-25T07:24:18.736Z,34.10
2018-07-25T07:26:46.812Z,33.60
2018-07-25T07:29:14.864Z,33.30
2018-07-25T07:31:42.908Z,33.30
2018-07-25T07:34:10.960Z,33.30
2018-07-25T07:36:39.001Z,33.10
2018-07-25T07:39:09.460Z,33.00
2018-07-25T07:41:37.504Z,33.00
2018-07-25T07:44:05.939Z,33.10
2018-07-25T07:49:01.865Z,33.10
2018-07-25T07:51:29.934Z,33.30
2018-07-25T07:53:58.000Z,33.40
2018-07-25T07:56:26.028Z,33.40
2018-07-25T07:58:54.073Z,33.50
2018-07-25T08:01:22.117Z,33.50
2018-07-25T08:03:50.180Z,33.60
2018-07-25T08:06:18.224Z,33.60
2018-07-25T08:08:46.296Z,33.90
2018-07-25T08:11:18.368Z,34.20
2018-07-25T08:13:47.048Z,34.40
2018-07-25T08:16:15.251Z,34.60
2018-07-25T08:18:43.301Z,34.70
2018-07-25T08:21:11.967Z,34.70
2018-07-25T08:23:40.308Z,34.70
2018-07-25T08:26:08.348Z,34.80
2018-07-25T08:28:36.389Z,35.00
2018-07-25T08:31:04.436Z,35.40
2018-07-25T08:33:32.785Z,35.70
2018-07-25T08:36:00.828Z,35.80
2018-07-25T08:38:41.212Z,36.10
2018-07-25T08:41:09.254Z,36.20
2018-07-25T08:43:38.508Z,36.30
2018-07-25T08:46:07.612Z,36.30
2018-07-25T08:48:35.813Z,36.20
2018-07-25T08:51:04.088Z,35.90
2018-07-25T08:53:32.796Z,36.00
2018-07-25T08:56:00.845Z,36.20
2018-07-25T08:58:29.265Z,36.40
2018-07-25T09:00:57.304Z,36.70
2018-07-25T09:03:25.544Z,36.60
2018-07-25T09:05:53.820Z,36.60
2018-07-25T09:08:21.882Z,36.80
2018-07-25T09:10:49.916Z,36.90
2018-07-25T09:13:17.966Z,37.30
2018-07-25T09:15:45.995Z,37.60
2018-07-25T09:18:14.073Z,38.00
2018-07-25T09:20:42.087Z,38.20
2018-07-25T09:23:10.161Z,38.20
2018-07-25T09:25:38.324Z,38.30
2018-07-25T09:28:06.308Z,38.40
2018-07-25T09:30:34.371Z,38.50
2018-07-25T09:33:02.432Z,38.70
2018-07-25T09:35:30.500Z,39.00
2018-07-25T09:37:58.556Z,39.20
2018-07-25T09:40:26.615Z,39.30
2018-07-25T09:42:54.673Z,39.40
2018-07-25T09:45:22.759Z,39.60
2018-07-25T09:47:50.816Z,39.60
2018-07-25T09:50:18.884Z,39.30
2018-07-25T09:52:46.934Z,39.10
2018-07-25T09:55:15.000Z,38.90
2018-07-25T09:57:43.054Z,38.90
2018-07-25T10:00:12.619Z,39.10
2018-07-25T10:02:41.217Z,39.40
2018-07-25T10:05:10.244Z,39.50
2018-07-25T10:07:38.372Z,39.20
2018-07-25T10:10:06.936Z,39.30
2018-07-25T10:12:34.964Z,39.50
2018-07-25T10:15:03.108Z,39.90
2018-07-25T10:17:31.090Z,40.00
2018-07-25T10:19:59.140Z,40.40
2018-07-25T10:22:27.254Z,40.70
2018-07-25T10:24:55.296Z,40.90
2018-07-25T10:27:23.433Z,41.20
2018-07-25T10:29:51.357Z,41.50
2018-07-25T10:32:19.396Z,41.20
2018-07-25T10:34:47.452Z,40.60
2018-07-25T10:37:15.478Z,40.10
2018-07-25T10:39:43.525Z,40.10
2018-07-25T10:42:11.576Z,40.40
2018-07-25T10:44:39.622Z,40.70
2018-07-25T10:47:07.676Z,41.00
2018-07-25T10:49:35.716Z,41.20
2018-07-25T10:52:03.768Z,41.30
2018-07-25T10:54:32.216Z,41.10
2018-07-25T10:57:00.259Z,40.80
2018-07-25T10:59:28.377Z,40.60
2018-07-25T11:01:56.396Z,40.70
2018-07-25T11:04:24.437Z,41.00
2018-07-25T11:06:52.480Z,41.20
2018-07-25T11:09:20.532Z,41.40
2018-07-25T11:11:48.563Z,41.90
2018-07-25T11:14:16.624Z,42.20
2018-07-25T11:16:44.652Z,42.50
2018-07-25T11:19:12.700Z,42.70
2018-07-25T11:21:40.760Z,42.80
2018-07-25T11:24:08.820Z,43.00
2018-07-25T11:26:36.875Z,43.30
2018-07-25T11:29:04.928Z,43.30
2018-07-25T11:31:33.020Z,43.40
2018-07-25T11:34:01.073Z,43.60
2018-07-25T11:36:29.140Z,43.70
2018-07-25T11:38:57.196Z,43.50
2018-07-25T11:41:25.260Z,43.50
2018-07-25T11:43:53.313Z,43.30
2018-07-25T11:46:21.384Z,43.00
2018-07-25T11:48:49.436Z,42.80
2018-07-25T11:51:17.492Z,42.90
2018-07-25T11:53:45.545Z,43.10
2018-07-25T11:56:13.629Z,43.30
2018-07-25T11:58:41.680Z,43.50
2018-07-25T12:01:09.830Z,43.80
2018-07-25T12:03:37.797Z,44.00
2018-07-25T12:06:06.016Z,44.20
2018-07-25T12:11:01.992Z,44.60
2018-07-25T12:13:30.043Z,44.80
2018-07-25T12:15:58.100Z,44.50
2018-07-25T12:18:26.157Z,44.50
2018-07-25T12:20:54.204Z,44.50
2018-07-25T12:23:22.253Z,44.50
2018-07-25T12:25:50.296Z,44.30
2018-07-25T12:30:46.266Z,44.60
2018-07-25T12:33:14.304Z,44.60
2018-07-25T12:35:42.413Z,44.50
2018-07-25T12:38:10.484Z,44.30
2018-07-25T12:40:38.536Z,44.10
2018-07-25T12:43:06.572Z,44.00
2018-07-25T12:45:34.617Z,44.10
2018-07-25T12:48:02.664Z,44.10
2018-07-25T12:50:30.709Z,44.10
2018-07-25T12:52:58.744Z,44.00
2018-07-25T12:55:26.795Z,44.00
2018-07-25T12:57:54.838Z,44.00
2018-07-25T13:00:22.901Z,44.10
2018-07-25T13:02:51.095Z,44.20
2018-07-25T13:05:19.096Z,44.20
2018-07-25T13:07:47.148Z,44.20
2018-07-25T13:10:15.200Z,44.00
2018-07-25T13:12:43.288Z,43.30
2018-07-25T13:15:11.329Z,43.00
2018-07-25T13:17:39.424Z,43.00
2018-07-25T13:20:07.628Z,43.20
2018-07-25T13:22:35.705Z,43.60
2018-07-25T13:25:03.744Z,43.80
2018-07-25T13:27:31.780Z,44.00
2018-07-25T13:29:59.839Z,44.00
2018-07-25T13:32:27.871Z,44.00
2018-07-25T13:34:55.905Z,43.80
2018-07-25T13:37:23.961Z,43.80
2018-07-25T13:39:52.004Z,43.70
2018-07-25T13:42:20.052Z,43.50
2018-07-25T13:44:48.087Z,43.60
2018-07-25T13:47:16.133Z,43.40
2018-07-25T13:49:44.165Z,43.30
2018-07-25T13:52:12.216Z,43.00
2018-07-25T13:54:40.240Z,43.00
2018-07-25T13:57:08.292Z,43.00
2018-07-25T13:59:36.345Z,42.90
2018-07-25T14:02:04.405Z,42.70
2018-07-25T14:04:32.456Z,42.40
2018-07-25T14:07:00.496Z,42.10
2018-07-25T14:09:28.544Z,41.80
2018-07-25T14:11:56.651Z,41.40
2018-07-25T14:14:24.647Z,41.00
2018-07-25T14:16:52.703Z,40.60
2018-07-25T14:19:20.760Z,40.30
2018-07-25T14:21:48.848Z,39.90
2018-07-25T14:24:16.966Z,39.60
2018-07-25T14:26:45.026Z,39.30
2018-07-25T14:29:13.123Z,39.10
2018-07-25T14:31:41.145Z,38.90
2018-07-25T14:34:09.210Z,38.80
2018-07-25T14:36:37.269Z,38.70
2018-07-25T14:39:08.346Z,38.50
2018-07-25T14:41:36.448Z,38.30
2018-07-25T14:44:04.553Z,38.10
2018-07-25T14:46:32.626Z,37.90
2018-07-25T14:49:00.712Z,37.80
2018-07-25T14:51:28.821Z,37.70
2018-07-25T14:53:57.014Z,37.50
2018-07-25T14:56:25.080Z,37.30
2018-07-25T14:58:53.136Z,37.20
2018-07-25T15:01:21.253Z,37.00
2018-07-25T15:03:49.327Z,36.80
2018-07-25T15:06:17.385Z,36.70
2018-07-25T15:08:45.448Z,36.60
2018-07-25T15:11:13.556Z,36.50
2018-07-25T15:13:41.607Z,36.50
2018-07-25T15:16:09.692Z,36.30
2018-07-25T15:18:37.761Z,36.20
2018-07-25T15:21:05.988Z,36.00
2018-07-25T15:23:45.584Z,35.70
2018-07-25T15:26:13.572Z,35.60
2018-07-25T15:28:41.612Z,35.40
2018-07-25T15:31:09.656Z,35.30
2018-07-25T15:33:37.703Z,35.30
2018-07-25T15:36:05.801Z,35.30
2018-07-25T15:38:33.798Z,35.40
2018-07-25T15:41:01.845Z,35.70
2018-07-25T15:43:29.881Z,35.70
2018-07-25T15:45:57.933Z,35.70
2018-07-25T15:48:25.970Z,35.90
2018-07-25T15:50:54.015Z,35.80
2018-07-25T15:53:22.064Z,35.90
2018-07-25T15:55:50.108Z,35.80
2018-07-25T15:58:18.168Z,35.70
2018-07-25T16:00:46.220Z,35.70
2018-07-25T16:03:14.263Z,35.60
2018-07-25T16:05:42.316Z,35.60
2018-07-25T16:08:10.369Z,35.60
2018-07-25T16:13:06.385Z,35.70
2018-07-25T16:15:34.423Z,35.70
2018-07-25T16:18:02.593Z,35.80
2018-07-25T16:20:30.645Z,35.80
2018-07-25T16:22:58.705Z,35.70
2018-07-25T16:25:26.752Z,35.70
2018-07-25T16:27:54.808Z,35.80
2018-07-25T16:30:22.845Z,35.70
2018-07-25T16:32:50.896Z,35.60
2018-07-25T16:35:18.944Z,35.50
2018-07-25T16:37:47.004Z,35.40
2018-07-25T16:40:15.058Z,35.30
2018-07-25T16:42:43.107Z,35.10
2018-07-25T16:45:11.153Z,35.00
2018-07-25T16:47:39.196Z,35.00
2018-07-25T16:50:07.441Z,35.00
2018-07-25T16:52:35.492Z,34.80
2018-07-25T16:55:03.536Z,34.60
2018-07-25T16:57:31.592Z,34.50
2018-07-25T16:59:59.659Z,34.40
2018-07-25T17:02:27.704Z,34.30
2018-07-25T17:04:55.759Z,34.30
2018-07-25T17:07:23.821Z,34.20
2018-07-25T17:09:51.853Z,34.10
2018-07-25T17:12:19.912Z,34.00
2018-07-25T17:14:47.961Z,34.00
2018-07-25T17:17:16.008Z,33.90
2018-07-25T17:19:44.060Z,33.80
2018-07-25T17:22:12.173Z,33.70
2018-07-25T17:24:40.284Z,33.50
2018-07-25T17:27:08.347Z,33.30
2018-07-25T17:29:36.416Z,33.10
2018-07-25T17:32:04.489Z,33.00
2018-07-25T17:34:32.610Z,32.90
2018-07-25T17:37:00.685Z,32.80
2018-07-25T17:39:28.748Z,32.70
2018-07-25T17:41:56.820Z,32.60
2018-07-25T17:44:24.896Z,32.50
2018-07-25T17:46:52.985Z,32.40
2018-07-25T17:49:21.040Z,32.30
2018-07-25T17:51:49.110Z,32.30
2018-07-25T17:54:17.183Z,32.10
2018-07-25T17:59:20.022Z,31.90
2018-07-25T18:01:48.117Z,31.90
2018-07-25T18:04:16.296Z,31.70
2018-07-25T18:06:44.398Z,31.50
2018-07-25T18:09:12.447Z,31.30
2018-07-25T18:11:40.520Z,31.10
2018-07-25T18:14:11.125Z,31.00
2018-07-25T18:16:39.417Z,31.00
2018-07-25T18:19:07.496Z,30.90
2018-07-25T18:21:35.583Z,30.80
2018-07-25T18:24:03.669Z,30.60
2018-07-25T18:26:31.740Z,30.50
2018-07-25T18:28:59.805Z,30.50
2018-07-25T18:31:27.872Z,30.30
2018-07-25T18:33:55.952Z,30.30
2018-07-25T18:36:24.017Z,30.30
2018-07-25T18:38:52.205Z,30.20
2018-07-25T18:41:20.359Z,30.00
2018-07-25T18:43:48.561Z,29.90
2018-07-25T18:46:16.620Z,29.70
2018-07-25T18:48:44.833Z,29.60
2018-07-25T18:51:12.951Z,29.50
2018-07-25T18:53:41.021Z,29.30
2018-07-25T18:56:09.100Z,29.10
2018-07-25T18:58:37.173Z,28.80
2018-07-25T19:01:05.236Z,28.60
2018-07-25T19:03:33.336Z,28.50
2018-07-25T19:06:01.414Z,28.40
2018-07-25T19:08:29.500Z,28.30
2018-07-25T19:10:57.576Z,28.10
2018-07-25T19:13:31.018Z,27.90
2018-07-25T19:15:59.092Z,27.70
2018-07-25T19:18:27.161Z,27.40
2018-07-25T19:20:55.229Z,27.20
2018-07-25T19:23:23.295Z,27.10
2018-07-25T19:28:19.199Z,26.90
2018-07-25T19:30:47.248Z,26.70
2018-07-25T19:33:15.336Z,26.60
2018-07-25T19:35:43.594Z,26.50
2018-07-25T19:38:11.619Z,26.40
2018-07-25T19:40:39.944Z,26.30
2018-07-25T19:43:07.998Z,26.20
2018-07-25T19:45:36.041Z,26.00
2018-07-25T19:48:04.108Z,25.80
2018-07-25T19:50:32.256Z,25.70
2018-07-25T19:53:00.272Z,25.50
2018-07-25T19:55:28.328Z,25.50
2018-07-25T19:57:56.408Z,25.40
2018-07-25T20:00:24.546Z,25.30
2018-07-25T20:02:52.584Z,25.30
2018-07-25T20:05:20.640Z,25.20
2018-07-25T20:07:48.683Z,25.10
2018-07-25T20:10:16.732Z,25.10
2018-07-25T20:12:44.780Z,25.00
2018-07-25T20:15:18.388Z,25.00
2018-07-25T20:17:46.453Z,25.00
2018-07-25T20:20:14.564Z,25.00
2018-07-25T20:22:42.656Z,25.00
2018-07-25T20:25:10.757Z,25.00
2018-07-25T20:27:38.849Z,25.20
2018-07-25T20:30:08.180Z,25.20
2018-07-25T20:32:36.265Z,25.20
2018-07-25T20:35:04.851Z,25.30
2018-07-25T20:37:33.245Z,25.30
2018-07-25T20:40:01.309Z,25.30
2018-07-25T20:42:29.415Z,25.30
2018-07-25T20:44:57.500Z,25.20
2018-07-25T20:47:25.569Z,25.20
2018-07-25T20:49:53.639Z,25.20
2018-07-25T20:52:21.745Z,25.20
2018-07-25T20:54:49.848Z,25.20
2018-07-25T20:57:17.929Z,25.20
2018-07-25T20:59:45.993Z,25.10
2018-07-25T21:02:14.073Z,25.10
2018-07-25T21:04:42.996Z,25.10
2018-07-25T21:07:11.064Z,25.10
2018-07-25T21:09:39.140Z,25.20
2018-07-25T21:12:07.227Z,25.20
2018-07-25T21:14:35.300Z,25.20
2018-07-25T21:17:03.411Z,25.20
2018-07-25T21:19:31.460Z,25.20
2018-07-25T21:21:59.528Z,25.20
2018-07-25T21:24:27.608Z,25.10
2018-07-25T21:26:55.673Z,25.20
2018-07-25T21:29:23.749Z,25.20
2018-07-25T21:31:51.821Z,25.20
2018-07-25T21:34:19.888Z,25.20
2018-07-25T21:36:47.958Z,25.20
2018-07-25T21:39:16.029Z,25.20
2018-07-25T21:41:44.090Z,25.30
2018-07-25T21:44:12.156Z,25.30
2018-07-25T21:46:40.221Z,25.30
2018-07-25T21:49:08.292Z,25.30
2018-07-25T21:51:36.361Z,25.30
2018-07-25T21:54:04.419Z,25.20
2018-07-25T21:56:32.485Z,25.30
2018-07-25T21:59:00.552Z,25.30
2018-07-25T22:01:28.634Z,25.20
2018-07-25T22:03:56.725Z,25.20
2018-07-25T22:06:24.783Z,25.20
2018-07-25T22:08:52.925Z,25.20
2018-07-25T22:11:20.932Z,25.10
2018-07-25T22:13:55.528Z,25.10
2018-07-25T22:16:24.429Z,25.00
2018-07-25T22:18:52.496Z,25.00
2018-07-25T22:21:20.552Z,24.90
2018-07-25T22:26:16.452Z,24.90
2018-07-25T22:28:44.496Z,24.90
2018-07-25T22:31:12.544Z,24.80
2018-07-25T22:33:40.644Z,24.80
2018-07-25T22:36:09.314Z,24.80
2018-07-25T22:38:37.387Z,24.80
2018-07-25T22:41:05.832Z,24.80
2018-07-25T22:43:33.885Z,24.80
2018-07-25T22:46:01.948Z,24.70
2018-07-25T22:48:30.070Z,24.70
2018-07-25T22:50:58.164Z,24.70
2018-07-25T22:53:26.220Z,24.70
2018-07-25T22:55:54.279Z,24.60
2018-07-25T22:58:22.364Z,24.70
2018-07-25T23:00:50.412Z,24.60
2018-07-25T23:03:18.456Z,24.60
2018-07-25T23:05:46.536Z,24.60
2018-07-25T23:08:14.580Z,24.60
2018-07-25T23:10:42.628Z,24.60
2018-07-25T23:13:10.673Z,24.60
2018-07-25T23:15:38.719Z,24.60
2018-07-25T23:18:06.764Z,24.60
2018-07-25T23:20:34.805Z,24.60
2018-07-25T23:23:02.885Z,24.50
2018-07-25T23:25:30.950Z,24.50
2018-07-25T23:27:59.911Z,24.50
2018-07-25T23:30:28.929Z,24.50
2018-07-25T23:32:56.997Z,24.40
2018-07-25T23:35:25.076Z,24.40
2018-07-25T23:37:53.138Z,24.40
2018-07-25T23:40:21.289Z,24.40
2018-07-25T23:42:49.943Z,24.40
2018-07-25T23:45:18.344Z,24.30
2018-07-25T23:47:46.416Z,24.30
2018-07-25T23:50:14.507Z,24.30
2018-07-25T23:52:42.564Z,24.20
2018-07-25T23:55:10.669Z,24.20
2018-07-25T23:57:38.833Z,24.20
